createdAt,value
2022-08-07T00:00:31.957Z,100
2022-08-07T00:10:33.691Z,100
2022-08-07T00:20:36.112Z,100
2022-08-07T00:30:38.567Z,100
2022-08-07T00:40:40.918Z,100
2022-08-07T00:50:46.397Z,100
2022-08-07T01:00:53.485Z,100
2022-08-07T01:10:54.330Z,100
2022-08-07T01:20:57.668Z,100
2022-08-07T01:40:54.979Z,100
2022-08-07T01:50:56.679Z,100
2022-08-07T02:01:09.621Z,100
2022-08-07T02:11:03.433Z,100
2022-08-07T02:21:06.269Z,100
2022-08-07T02:31:06.110Z,100
2022-08-07T02:41:07.906Z,100
2022-08-07T03:01:16.133Z,100
2022-08-07T03:11:13.597Z,100
2022-08-07T03:21:18.997Z,100
2022-08-07T03:31:18.281Z,100
2022-08-07T04:01:24.874Z,100
2022-08-07T04:12:15.825Z,100
2022-08-07T04:21:31.170Z,100
2022-08-07T04:31:38.530Z,100
2022-08-07T04:51:35.853Z,100
2022-08-07T05:01:38.476Z,100
2022-08-07T05:11:56.560Z,100
2022-08-07T05:21:59.675Z,100
2022-08-07T05:31:47.415Z,100
2022-08-07T05:42:00.853Z,100
2022-08-07T05:51:49.552Z,100
2022-08-07T06:01:51.838Z,100
2022-08-07T06:11:54.172Z,100
2022-08-07T06:22:12.108Z,100
2022-08-07T06:42:01.464Z,100
2022-08-07T06:52:02.964Z,100
2022-08-07T07:02:04.580Z,100
2022-08-07T07:12:10.975Z,100
2022-08-07T07:22:11.638Z,100
2022-08-07T07:32:12.046Z,100
2022-08-07T07:42:17.614Z,100
2022-08-07T08:02:22.806Z,100
2022-08-07T08:12:43.144Z,100
2022-08-07T08:22:22.180Z,100
2022-08-07T08:32:24.992Z,100
2022-08-07T08:42:26.376Z,100
2022-08-07T09:02:34.931Z,100
2022-08-07T09:12:32.411Z,100
2022-08-07T09:22:39.408Z,100
2022-08-07T09:32:36.936Z,100
2022-08-07T10:03:08.056Z,100
2022-08-07T10:32:59.426Z,100
2022-08-07T10:42:57.482Z,100
2022-08-07T11:03:01.651Z,100
2022-08-07T11:43:10.667Z,93
2022-08-07T11:53:12.753Z,93
2022-08-07T12:03:41.270Z,91
2022-08-07T12:13:18.516Z,90
2022-08-07T12:23:21.373Z,94
2022-08-07T12:33:23.192Z,94
2022-08-07T12:44:03.334Z,90
2022-08-07T13:24:00.304Z,88
2022-08-07T13:34:14.467Z,92
2022-08-07T13:43:37.626Z,94
2022-08-07T13:53:55.158Z,90
2022-08-07T14:13:45.106Z,91
2022-08-07T14:23:59.784Z,93
2022-08-07T14:33:47.938Z,91
2022-08-07T14:43:56.156Z,92
2022-08-07T14:54:09.077Z,93
2022-08-07T15:03:53.747Z,90
2022-08-07T15:13:55.838Z,88
2022-08-07T15:25:03.493Z,88
2022-08-07T15:44:02.360Z,89
2022-08-07T15:54:04.113Z,86
2022-08-07T16:14:07.564Z,88
2022-08-07T16:24:34.063Z,89
2022-08-07T16:34:18.271Z,86
2022-08-07T16:44:40.751Z,87
2022-08-07T16:54:18.284Z,93
2022-08-07T17:34:33.534Z,100
2022-08-07T17:44:35.162Z,100
2022-08-07T18:04:34.393Z,100
2022-08-07T18:14:37.462Z,100
2022-08-07T18:24:36.498Z,100
2022-08-07T18:45:09.446Z,100
2022-08-07T18:54:43.347Z,100
2022-08-07T19:04:55.982Z,100
2022-08-07T19:24:49.681Z,100
2022-08-07T19:34:51.722Z,100
2022-08-07T19:44:53.395Z,100
2022-08-07T19:54:57.016Z,100
2022-08-07T20:04:57.915Z,100
2022-08-07T20:14:59.939Z,100
2022-08-07T20:35:06.161Z,100
2022-08-07T20:45:32.433Z,100
2022-08-07T20:55:08.797Z,100
2022-08-07T21:05:16.163Z,100
2022-08-07T21:15:18.624Z,100
2022-08-07T21:25:14.482Z,100
2022-08-07T21:35:16.554Z,100
2022-08-07T21:46:05.022Z,100
2022-08-07T21:55:28.063Z,100
2022-08-07T22:05:44.158Z,100
2022-08-07T22:16:35.565Z,100
2022-08-07T22:25:27.216Z,100
2022-08-07T22:35:39.379Z,100
2022-08-07T22:46:05.179Z,100
2022-08-07T22:55:34.069Z,100
2022-08-07T23:06:10.441Z,100
2022-08-07T23:16:05.285Z,100
2022-08-07T23:25:39.504Z,100
2022-08-07T23:35:42.087Z,100
2022-08-07T23:46:02.102Z,100
2022-08-07T23:55:47.475Z,100
